createdAt,value
2023-02-27T00:00:35.965Z,88.51
2023-02-27T00:01:58.823Z,88.63
2023-02-27T00:03:01.965Z,88.63
2023-02-27T00:04:05.330Z,88.78
2023-02-27T00:05:08.598Z,88.66
2023-02-27T00:06:11.465Z,88.64
2023-02-27T00:07:14.360Z,88.72
2023-02-27T00:08:17.219Z,88.72
2023-02-27T00:09:20.117Z,88.78
2023-02-27T00:10:23.452Z,88.77
2023-02-27T00:11:26.578Z,88.79
2023-02-27T00:12:31.144Z,88.84
2023-02-27T00:13:34.017Z,88.87
2023-02-27T00:14:36.889Z,88.76
2023-02-27T00:15:41.164Z,88.90
2023-02-27T00:16:44.104Z,88.80
2023-02-27T00:17:47.018Z,88.85
2023-02-27T00:18:50.081Z,89.01
2023-02-27T00:19:52.945Z,88.94
2023-02-27T00:20:55.816Z,88.91
2023-02-27T00:21:58.683Z,88.97
2023-02-27T00:23:01.536Z,88.95
2023-02-27T00:24:04.790Z,89.03
2023-02-27T00:25:08.434Z,89.04
2023-02-27T00:26:11.390Z,89.15
2023-02-27T00:27:14.615Z,89.14
2023-02-27T00:28:19.181Z,89.14
2023-02-27T00:29:22.356Z,89.18
2023-02-27T00:30:28.126Z,89.21
2023-02-27T00:31:31.101Z,89.11
2023-02-27T00:32:36.916Z,89.23
2023-02-27T00:33:39.944Z,89.28
2023-02-27T00:34:45.267Z,89.25
2023-02-27T00:35:59.197Z,89.31
2023-02-27T00:37:03.950Z,89.40
2023-02-27T00:38:06.925Z,89.37
2023-02-27T00:39:09.916Z,89.40
2023-02-27T00:40:14.008Z,89.46
2023-02-27T00:41:16.989Z,89.54
2023-02-27T00:42:19.876Z,89.54
2023-02-27T00:43:22.742Z,89.54
2023-02-27T00:44:26.114Z,89.58
2023-02-27T00:45:29.108Z,89.67
2023-02-27T00:46:32.041Z,89.67
2023-02-27T00:47:35.367Z,89.56
2023-02-27T00:48:38.225Z,89.66
2023-02-27T00:49:41.167Z,89.70
2023-02-27T00:50:44.899Z,89.72
2023-02-27T00:51:48.244Z,89.78
2023-02-27T00:52:51.131Z,89.79
2023-02-27T00:53:54.002Z,89.79
2023-02-27T00:54:57.312Z,89.88
2023-02-27T00:56:00.351Z,89.83
2023-02-27T00:57:03.529Z,89.79
2023-02-27T00:58:06.387Z,89.81
2023-02-27T00:59:09.294Z,89.80
2023-02-27T01:00:12.734Z,89.82
2023-02-27T01:01:15.789Z,89.92
2023-02-27T01:02:19.172Z,89.88
2023-02-27T01:03:22.041Z,89.93
2023-02-27T01:04:25.277Z,89.94
2023-02-27T01:05:29.530Z,89.99
2023-02-27T01:06:35.639Z,90.02
2023-02-27T01:07:38.765Z,89.94
2023-02-27T01:08:42.375Z,90.00
2023-02-27T01:09:45.316Z,89.92
2023-02-27T01:10:48.179Z,89.96
2023-02-27T01:11:51.588Z,90.06
2023-02-27T01:12:54.526Z,90.08
2023-02-27T01:13:57.476Z,90.09
2023-02-27T01:15:04.001Z,90.07
2023-02-27T01:16:08.599Z,90.14
2023-02-27T01:17:11.632Z,90.15
2023-02-27T01:18:14.560Z,90.14
2023-02-27T01:19:17.442Z,90.19
2023-02-27T01:20:20.347Z,90.21
2023-02-27T01:21:24.024Z,90.24
2023-02-27T01:22:27.017Z,90.25
2023-02-27T01:23:30.182Z,90.26
2023-02-27T01:24:33.635Z,90.27
2023-02-27T01:25:36.536Z,90.35
2023-02-27T01:26:39.510Z,90.38
2023-02-27T01:27:42.396Z,90.35
2023-02-27T01:28:45.259Z,90.36
2023-02-27T01:29:48.706Z,90.37
2023-02-27T01:30:52.345Z,90.42
2023-02-27T01:31:55.288Z,90.40
2023-02-27T01:32:58.211Z,90.41
2023-02-27T01:34:01.322Z,90.50
2023-02-27T01:35:04.659Z,90.43
2023-02-27T01:36:08.243Z,90.50
2023-02-27T01:37:11.120Z,90.52
2023-02-27T01:38:14.072Z,90.45
2023-02-27T01:39:17.100Z,90.48
2023-02-27T01:40:20.093Z,90.46
2023-02-27T01:41:23.282Z,90.47
2023-02-27T01:42:28.321Z,90.49
2023-02-27T01:43:33.145Z,90.45
2023-02-27T01:45:18.966Z,90.55
2023-02-27T01:46:22.159Z,90.50
2023-02-27T01:47:26.162Z,90.49
2023-02-27T01:48:37.445Z,90.54
2023-02-27T01:49:40.378Z,90.60
2023-02-27T01:50:49.793Z,90.56
2023-02-27T01:52:05.787Z,90.65
2023-02-27T01:53:09.217Z,90.64
2023-02-27T01:54:19.358Z,90.72
2023-02-27T01:55:24.745Z,90.66
2023-02-27T01:56:31.957Z,90.78
2023-02-27T01:57:36.153Z,90.77
2023-02-27T01:58:39.207Z,90.71
2023-02-27T01:59:42.520Z,90.83
2023-02-27T02:00:46.750Z,90.90
2023-02-27T02:01:50.861Z,90.89
2023-02-27T02:03:00.607Z,90.93
2023-02-27T02:04:18.799Z,91.01
2023-02-27T02:05:23.031Z,91.02
2023-02-27T02:06:26.378Z,91.07
2023-02-27T02:07:30.163Z,91.05
2023-02-27T02:08:39.766Z,90.99
2023-02-27T02:09:52.330Z,91.05
2023-02-27T02:10:57.924Z,91.26
2023-02-27T02:12:01.273Z,91.16
2023-02-27T02:13:04.197Z,91.28
2023-02-27T02:14:10.915Z,91.27
2023-02-27T02:15:17.089Z,91.22
2023-02-27T02:16:41.818Z,91.30
2023-02-27T02:17:51.180Z,91.28
2023-02-27T02:18:58.291Z,91.39
2023-02-27T02:20:22.981Z,91.44
2023-02-27T02:21:31.858Z,91.51
2023-02-27T02:23:11.344Z,91.56
2023-02-27T02:24:20.247Z,91.52
2023-02-27T02:25:41.540Z,91.56
2023-02-27T02:26:54.120Z,91.63
2023-02-27T02:28:18.332Z,91.70
2023-02-27T02:29:36.135Z,91.78
2023-02-27T02:30:53.887Z,91.70
2023-02-27T02:32:10.818Z,91.75
2023-02-27T02:33:38.297Z,91.75
2023-02-27T02:35:12.654Z,91.77
2023-02-27T02:36:30.521Z,91.76
2023-02-27T02:37:48.636Z,91.81
2023-02-27T02:38:56.800Z,91.78
2023-02-27T02:40:02.525Z,91.93
2023-02-27T02:41:15.572Z,91.95
2023-02-27T02:42:29.362Z,91.91
2023-02-27T02:44:08.041Z,91.95
2023-02-27T02:45:31.361Z,91.99
2023-02-27T02:46:46.253Z,92.04
2023-02-27T02:48:14.200Z,92.12
2023-02-27T02:50:16.330Z,92.11
2023-02-27T02:51:37.130Z,92.09
2023-02-27T02:52:51.896Z,92.19
2023-02-27T02:54:15.576Z,92.22
2023-02-27T02:55:29.350Z,92.34
2023-02-27T02:56:56.931Z,92.12
2023-02-27T02:58:18.800Z,92.20
2023-02-27T02:59:33.342Z,92.35
2023-02-27T03:00:46.691Z,92.33
2023-02-27T03:02:07.030Z,92.36
2023-02-27T03:03:28.002Z,92.30
2023-02-27T03:04:52.029Z,92.45
2023-02-27T03:06:10.002Z,92.42
2023-02-27T03:07:23.858Z,92.51
2023-02-27T03:08:31.084Z,92.53
2023-02-27T03:09:40.118Z,92.48
2023-02-27T03:10:50.358Z,92.45
2023-02-27T03:11:57.452Z,92.52
2023-02-27T03:13:28.221Z,92.55
2023-02-27T03:14:50.777Z,92.54
2023-02-27T03:16:16.162Z,92.63
2023-02-27T03:17:30.813Z,92.66
2023-02-27T03:18:43.974Z,92.66
2023-02-27T03:19:57.551Z,92.69
2023-02-27T03:21:14.162Z,92.68
2023-02-27T03:22:23.739Z,92.65
2023-02-27T03:23:42.849Z,92.72
2023-02-27T03:24:54.109Z,92.64
2023-02-27T03:25:58.621Z,92.59
2023-02-27T03:27:05.206Z,92.54
2023-02-27T03:28:11.510Z,92.59
2023-02-27T03:29:24.046Z,92.61
2023-02-27T03:30:27.308Z,92.54
2023-02-27T03:31:38.589Z,92.58
2023-02-27T03:33:01.544Z,92.66
2023-02-27T03:34:15.924Z,92.67
2023-02-27T03:35:19.216Z,92.61
2023-02-27T03:36:37.813Z,92.73
2023-02-27T03:38:05.068Z,92.60
2023-02-27T03:39:14.820Z,92.59
2023-02-27T03:40:25.882Z,92.60
2023-02-27T03:41:54.693Z,92.56
2023-02-27T03:43:21.648Z,92.60
2023-02-27T03:44:40.546Z,92.60
2023-02-27T03:45:56.425Z,92.66
2023-02-27T03:47:00.020Z,92.58
2023-02-27T03:48:04.203Z,92.51
2023-02-27T03:49:07.786Z,92.51
2023-02-27T03:50:11.588Z,92.48
2023-02-27T03:51:18.505Z,92.55
2023-02-27T03:52:23.543Z,92.44
2023-02-27T03:53:36.017Z,92.34
2023-02-27T03:54:44.923Z,92.43
2023-02-27T03:55:49.108Z,92.41
2023-02-27T03:57:04.721Z,92.48
2023-02-27T03:58:07.719Z,92.54
2023-02-27T03:59:11.102Z,92.54
2023-02-27T04:00:20.825Z,92.48
2023-02-27T04:01:23.873Z,92.50
2023-02-27T04:02:27.505Z,92.46
2023-02-27T04:03:37.281Z,92.52
2023-02-27T04:04:41.336Z,92.48
2023-02-27T04:05:47.185Z,92.63
2023-02-27T04:07:24.304Z,92.51
2023-02-27T04:08:38.261Z,92.60
2023-02-27T04:10:38.423Z,92.61
2023-02-27T04:12:12.014Z,92.56
2023-02-27T04:13:33.571Z,92.61
2023-02-27T04:14:59.413Z,92.61
2023-02-27T04:16:30.735Z,92.66
2023-02-27T04:17:49.604Z,92.67
2023-02-27T04:19:11.166Z,92.63
2023-02-27T04:20:45.152Z,92.62
2023-02-27T04:21:56.687Z,92.66
2023-02-27T04:23:17.343Z,92.59
2023-02-27T04:24:44.837Z,92.70
2023-02-27T04:25:57.719Z,92.68
2023-02-27T04:27:32.769Z,92.54
2023-02-27T04:28:53.950Z,92.62
2023-02-27T04:30:08.478Z,92.63
2023-02-27T04:31:20.490Z,92.73
2023-02-27T04:32:30.841Z,92.58
2023-02-27T04:33:57.398Z,92.70
2023-02-27T04:35:07.386Z,92.61
2023-02-27T04:36:27.249Z,92.59
2023-02-27T04:37:43.624Z,92.62
2023-02-27T04:39:03.198Z,92.66
2023-02-27T04:40:11.340Z,92.67
2023-02-27T04:41:25.385Z,92.69
2023-02-27T04:42:32.478Z,92.66
2023-02-27T04:43:38.459Z,92.81
2023-02-27T04:44:42.852Z,92.76
2023-02-27T04:45:47.008Z,92.77
2023-02-27T04:46:52.647Z,92.69
2023-02-27T04:48:07.215Z,92.69
2023-02-27T04:49:29.819Z,92.74
2023-02-27T04:50:40.195Z,92.70
2023-02-27T04:51:51.983Z,92.71
2023-02-27T04:53:03.619Z,92.69
2023-02-27T04:54:14.324Z,92.68
2023-02-27T04:55:30.621Z,92.77
2023-02-27T04:56:43.651Z,92.68
2023-02-27T04:57:56.868Z,92.62
2023-02-27T04:59:09.400Z,92.62
2023-02-27T05:00:13.935Z,92.56
2023-02-27T05:01:40.097Z,92.57
2023-02-27T05:02:47.711Z,92.59
2023-02-27T05:03:53.820Z,92.48
2023-02-27T05:05:00.428Z,92.59
2023-02-27T05:06:03.876Z,92.55
2023-02-27T05:07:11.084Z,92.54
2023-02-27T05:08:20.879Z,92.52
2023-02-27T05:09:39.867Z,92.67
2023-02-27T05:10:51.250Z,92.57
2023-02-27T05:12:03.709Z,92.53
2023-02-27T05:13:18.138Z,92.55
2023-02-27T05:14:30.462Z,92.57
2023-02-27T05:15:47.257Z,92.63
2023-02-27T05:17:08.372Z,92.61
2023-02-27T05:18:16.930Z,92.63
2023-02-27T05:19:21.220Z,92.62
2023-02-27T05:20:29.781Z,92.66
2023-02-27T05:21:36.779Z,92.59
2023-02-27T05:23:08.591Z,92.51
2023-02-27T05:24:28.953Z,92.39
2023-02-27T05:26:24.493Z,92.38
2023-02-27T05:27:49.754Z,92.44
2023-02-27T05:29:06.467Z,92.50
2023-02-27T05:30:19.406Z,92.46
2023-02-27T05:31:33.446Z,92.41
2023-02-27T05:32:55.363Z,92.41
2023-02-27T05:34:30.718Z,92.37
2023-02-27T05:35:49.410Z,92.33
2023-02-27T05:37:04.969Z,92.51
2023-02-27T05:38:19.726Z,92.42
2023-02-27T05:39:26.020Z,92.41
2023-02-27T05:40:35.900Z,92.40
2023-02-27T05:41:50.880Z,92.43
2023-02-27T05:43:11.004Z,92.39
2023-02-27T05:44:25.880Z,92.46
2023-02-27T05:45:32.734Z,92.55
2023-02-27T05:46:39.784Z,92.67
2023-02-27T05:47:49.560Z,92.63
2023-02-27T05:48:57.393Z,92.52
2023-02-27T05:50:12.507Z,92.54
2023-02-27T05:51:17.199Z,92.57
2023-02-27T05:52:24.449Z,92.47
2023-02-27T05:53:33.722Z,92.44
2023-02-27T05:54:45.990Z,92.36
2023-02-27T05:55:52.530Z,92.35
2023-02-27T05:56:59.056Z,92.31
2023-02-27T05:58:18.711Z,92.31
2023-02-27T05:59:52.100Z,92.25
2023-02-27T06:01:00.407Z,92.15
2023-02-27T06:02:03.639Z,92.24
2023-02-27T06:03:07.011Z,92.18
2023-02-27T06:04:10.278Z,92.22
2023-02-27T06:05:19.575Z,91.94
2023-02-27T06:06:23.069Z,91.88
2023-02-27T06:07:45.350Z,91.88
2023-02-27T06:09:06.117Z,91.76
2023-02-27T06:10:14.025Z,91.62
2023-02-27T06:11:18.136Z,91.61
2023-02-27T06:12:21.006Z,91.62
2023-02-27T06:13:24.489Z,91.49
2023-02-27T06:14:28.141Z,91.46
2023-02-27T06:15:31.001Z,91.44
2023-02-27T06:16:38.182Z,91.36
2023-02-27T06:17:41.306Z,91.45
2023-02-27T06:18:44.173Z,91.43
2023-02-27T06:19:47.069Z,91.32
2023-02-27T06:20:50.180Z,91.25
2023-02-27T06:21:53.345Z,91.16
2023-02-27T06:22:56.224Z,91.23
2023-02-27T06:23:59.152Z,91.23
2023-02-27T06:25:02.440Z,91.27
2023-02-27T06:26:05.789Z,91.19
2023-02-27T06:27:08.662Z,90.99
2023-02-27T06:28:11.926Z,91.01
2023-02-27T06:29:14.804Z,91.03
2023-02-27T06:30:17.910Z,90.85
2023-02-27T06:31:20.888Z,90.86
2023-02-27T06:32:25.499Z,90.84
2023-02-27T06:33:28.587Z,90.85
2023-02-27T06:34:31.582Z,90.76
2023-02-27T06:35:34.531Z,90.72
2023-02-27T06:36:37.546Z,90.63
2023-02-27T06:37:40.421Z,90.63
2023-02-27T06:38:43.332Z,90.46
2023-02-27T06:39:46.140Z,90.36
2023-02-27T06:40:51.219Z,90.19
2023-02-27T06:41:54.344Z,90.14
2023-02-27T06:42:57.188Z,90.07
2023-02-27T06:44:00.473Z,89.98
2023-02-27T06:45:03.596Z,89.95
2023-02-27T06:46:06.459Z,89.84
2023-02-27T06:47:09.640Z,89.72
2023-02-27T06:48:13.211Z,89.65
2023-02-27T06:49:16.199Z,89.53
2023-02-27T06:50:19.134Z,89.35
2023-02-27T06:51:22.119Z,89.09
2023-02-27T06:52:24.925Z,89.04
2023-02-27T06:53:27.929Z,89.10
2023-02-27T06:54:31.857Z,88.95
2023-02-27T06:55:34.842Z,88.90
2023-02-27T06:56:37.778Z,88.83
2023-02-27T06:57:40.633Z,88.67
2023-02-27T06:58:43.447Z,88.39
2023-02-27T06:59:46.299Z,88.29
2023-02-27T07:00:49.110Z,88.06
2023-02-27T07:01:52.149Z,88.01
2023-02-27T07:02:55.036Z,87.88
2023-02-27T07:03:57.978Z,87.62
2023-02-27T07:05:03.160Z,87.60
2023-02-27T07:06:12.130Z,87.44
2023-02-27T07:07:35.977Z,87.30
2023-02-27T07:08:38.019Z,87.27
2023-02-27T07:10:00.850Z,87.15
2023-02-27T07:11:03.870Z,87.37
2023-02-27T07:12:08.066Z,87.30
2023-02-27T07:13:10.918Z,87.15
2023-02-27T07:14:17.125Z,87.02
2023-02-27T07:15:20.293Z,87.06
2023-02-27T07:16:23.330Z,86.99
2023-02-27T07:17:26.259Z,86.82
2023-02-27T07:18:29.175Z,86.87
2023-02-27T07:19:33.819Z,86.95
2023-02-27T07:20:37.178Z,87.01
2023-02-27T07:21:40.082Z,86.83
2023-02-27T07:22:42.962Z,86.78
2023-02-27T07:23:45.918Z,86.83
2023-02-27T07:24:48.877Z,86.73
2023-02-27T07:25:51.846Z,86.21
2023-02-27T07:26:55.014Z,86.25
2023-02-27T07:27:57.949Z,86.43
2023-02-27T07:29:00.865Z,86.40
2023-02-27T07:30:04.189Z,86.19
2023-02-27T07:31:07.221Z,86.31
2023-02-27T07:32:11.518Z,86.24
2023-02-27T07:33:14.493Z,86.39
2023-02-27T07:34:17.488Z,86.43
2023-02-27T07:35:20.401Z,86.32
2023-02-27T07:36:23.697Z,86.18
2023-02-27T07:37:28.281Z,86.12
2023-02-27T07:38:32.898Z,86.13
2023-02-27T07:39:35.798Z,86.16
2023-02-27T07:40:38.687Z,86.06
2023-02-27T07:41:42.128Z,86.06
2023-02-27T07:42:53.057Z,85.66
2023-02-27T07:43:56.250Z,85.43
2023-02-27T07:45:00.353Z,85.50
2023-02-27T07:46:04.162Z,85.78
2023-02-27T07:47:07.072Z,85.63
2023-02-27T07:48:11.138Z,85.61
2023-02-27T07:49:14.359Z,85.48
2023-02-27T07:50:17.634Z,85.17
2023-02-27T07:51:20.900Z,85.26
2023-02-27T07:52:24.962Z,85.33
2023-02-27T07:53:28.068Z,85.12
2023-02-27T07:54:31.166Z,85.12
2023-02-27T07:55:34.670Z,84.89
2023-02-27T07:56:37.696Z,84.70
2023-02-27T07:57:40.763Z,84.71
2023-02-27T07:58:43.599Z,84.72
2023-02-27T07:59:46.479Z,84.66
2023-02-27T08:00:49.376Z,84.95
2023-02-27T08:01:52.626Z,85.17
2023-02-27T08:02:55.512Z,84.90
2023-02-27T08:03:58.513Z,84.72
2023-02-27T08:05:01.435Z,84.54
2023-02-27T08:06:04.429Z,84.50
2023-02-27T08:07:08.278Z,84.37
2023-02-27T08:08:11.147Z,84.61
2023-02-27T08:09:14.295Z,84.22
2023-02-27T08:10:17.513Z,84.17
2023-02-27T08:11:20.347Z,83.75
2023-02-27T08:12:23.316Z,83.52
2023-02-27T08:13:48.555Z,83.46
2023-02-27T08:14:49.100Z,83.07
2023-02-27T08:15:52.077Z,83.22
2023-02-27T08:16:54.944Z,83.45
2023-02-27T08:17:58.348Z,83.22
2023-02-27T08:19:01.439Z,83.28
2023-02-27T08:20:05.213Z,82.77
2023-02-27T08:21:08.101Z,82.63
2023-02-27T08:22:12.152Z,82.74
2023-02-27T08:23:15.040Z,82.74
2023-02-27T08:24:18.059Z,82.57
2023-02-27T08:25:21.643Z,82.52
2023-02-27T08:26:24.546Z,82.66
2023-02-27T08:27:27.478Z,82.68
2023-02-27T08:28:30.430Z,82.81
2023-02-27T08:29:33.886Z,82.88
2023-02-27T08:30:36.766Z,82.99
2023-02-27T08:31:39.754Z,82.71
2023-02-27T08:32:43.342Z,82.52
2023-02-27T08:33:46.255Z,82.59
2023-02-27T08:34:49.109Z,82.68
2023-02-27T08:35:52.203Z,82.21
2023-02-27T08:36:55.538Z,81.92
2023-02-27T08:37:58.494Z,81.88
2023-02-27T08:39:01.389Z,81.65
2023-02-27T08:40:07.221Z,81.52
2023-02-27T08:41:10.112Z,81.77
2023-02-27T08:42:13.046Z,81.62
2023-02-27T08:43:15.867Z,81.67
2023-02-27T08:44:19.663Z,81.69
2023-02-27T08:45:22.611Z,81.77
2023-02-27T08:46:26.013Z,81.29
2023-02-27T08:47:29.079Z,81.41
2023-02-27T08:48:32.457Z,81.77
2023-02-27T08:49:35.491Z,82.21
2023-02-27T08:50:39.647Z,82.03
2023-02-27T08:51:42.530Z,81.53
2023-02-27T08:52:45.444Z,81.38
2023-02-27T08:53:48.405Z,80.81
2023-02-27T08:54:51.247Z,80.57
2023-02-27T08:55:54.133Z,80.57
2023-02-27T08:56:56.980Z,80.21
2023-02-27T08:57:59.869Z,80.07
2023-02-27T08:59:02.930Z,80.07
2023-02-27T09:00:07.561Z,80.22
2023-02-27T09:01:10.546Z,80.42
2023-02-27T09:02:14.010Z,80.33
2023-02-27T09:03:17.290Z,80.08
2023-02-27T09:04:21.128Z,80.39
2023-02-27T09:05:24.126Z,80.30
2023-02-27T09:06:27.391Z,80.08
2023-02-27T09:07:30.594Z,79.79
2023-02-27T09:08:33.581Z,79.82
2023-02-27T09:09:36.460Z,80.01
2023-02-27T09:10:39.649Z,80.00
2023-02-27T09:11:42.565Z,79.51
2023-02-27T09:12:45.496Z,79.70
2023-02-27T09:13:48.467Z,79.89
2023-02-27T09:14:51.279Z,79.58
2023-02-27T09:15:54.449Z,79.24
2023-02-27T09:16:58.418Z,78.99
2023-02-27T09:18:03.290Z,79.21
2023-02-27T09:19:06.896Z,79.02
2023-02-27T09:20:10.829Z,78.86
2023-02-27T09:21:14.252Z,78.42
2023-02-27T09:22:18.397Z,78.35
2023-02-27T09:23:21.236Z,78.45
2023-02-27T09:24:24.205Z,78.53
2023-02-27T09:25:27.800Z,78.65
2023-02-27T09:26:42.825Z,78.73
2023-02-27T09:27:48.747Z,78.78
2023-02-27T09:28:51.707Z,78.92
2023-02-27T09:29:56.403Z,79.23
2023-02-27T09:31:05.743Z,78.99
2023-02-27T09:32:08.956Z,79.25
2023-02-27T09:33:12.020Z,78.98
2023-02-27T09:34:14.948Z,78.94
2023-02-27T09:35:20.551Z,78.62
2023-02-27T09:36:24.623Z,78.65
2023-02-27T09:37:27.650Z,78.42
2023-02-27T09:38:30.490Z,78.25
2023-02-27T09:39:33.393Z,78.33
2023-02-27T09:40:42.026Z,78.07
2023-02-27T09:42:05.504Z,77.74
2023-02-27T09:43:15.809Z,78.07
2023-02-27T09:44:18.624Z,78.35
2023-02-27T09:45:25.775Z,78.32
2023-02-27T09:46:29.594Z,77.78
2023-02-27T09:47:40.080Z,78.23
2023-02-27T09:48:47.730Z,78.33
2023-02-27T09:49:59.327Z,78.23
2023-02-27T09:51:02.893Z,78.48
2023-02-27T09:52:05.738Z,78.86
2023-02-27T09:53:22.721Z,79.09
2023-02-27T09:54:31.469Z,78.80
2023-02-27T09:55:40.299Z,78.68
2023-02-27T09:56:51.248Z,78.71
2023-02-27T09:58:20.001Z,78.64
2023-02-27T09:59:47.683Z,78.49
2023-02-27T10:01:28.356Z,78.40
2023-02-27T10:02:53.028Z,77.97
2023-02-27T10:04:14.466Z,77.52
2023-02-27T10:05:42.520Z,77.68
2023-02-27T10:06:52.172Z,77.86
2023-02-27T10:08:26.523Z,77.95
2023-02-27T10:09:32.438Z,78.21
2023-02-27T10:11:00.578Z,78.28
2023-02-27T10:12:07.696Z,78.67
2023-02-27T10:13:30.674Z,78.84
2023-02-27T10:14:33.470Z,78.71
2023-02-27T10:15:41.909Z,78.73
2023-02-27T10:16:52.173Z,79.11
2023-02-27T10:18:01.550Z,78.67
2023-02-27T10:19:15.680Z,77.89
2023-02-27T10:20:29.266Z,77.87
2023-02-27T10:21:44.015Z,77.87
2023-02-27T10:22:49.132Z,77.55
2023-02-27T10:24:02.256Z,77.67
2023-02-27T10:25:29.748Z,77.45
2023-02-27T10:26:42.356Z,77.58
2023-02-27T10:27:49.014Z,77.40
2023-02-27T10:28:52.224Z,77.56
2023-02-27T10:30:11.153Z,77.69
2023-02-27T10:31:31.695Z,77.58
2023-02-27T10:32:36.349Z,77.57
2023-02-27T10:33:42.041Z,77.46
2023-02-27T10:35:05.618Z,77.96
2023-02-27T10:36:18.083Z,78.11
2023-02-27T10:37:30.498Z,77.94
2023-02-27T10:38:44.761Z,77.91
2023-02-27T10:40:00.482Z,77.56
2023-02-27T10:41:04.790Z,77.21
2023-02-27T10:42:11.807Z,77.05
2023-02-27T10:43:19.324Z,76.89
2023-02-27T10:44:24.604Z,76.97
2023-02-27T10:45:27.639Z,77.27
2023-02-27T10:46:32.999Z,77.00
2023-02-27T10:47:38.924Z,77.23
2023-02-27T10:48:41.966Z,77.46
2023-02-27T10:49:45.124Z,77.54
2023-02-27T10:50:52.584Z,77.50
2023-02-27T10:52:07.102Z,77.28
2023-02-27T10:53:24.817Z,77.29
2023-02-27T10:54:31.533Z,77.11
2023-02-27T10:55:38.349Z,77.10
2023-02-27T10:56:44.679Z,77.29
2023-02-27T10:57:47.659Z,77.42
2023-02-27T10:59:16.878Z,77.45
2023-02-27T11:00:44.100Z,77.15
2023-02-27T11:01:56.725Z,76.90
2023-02-27T11:03:00.111Z,77.00
2023-02-27T11:04:03.109Z,77.27
2023-02-27T11:05:31.381Z,77.07
2023-02-27T11:06:34.344Z,77.12
2023-02-27T11:07:38.756Z,76.74
2023-02-27T11:08:41.563Z,76.80
2023-02-27T11:09:59.945Z,77.04
2023-02-27T11:11:09.539Z,77.26
2023-02-27T11:12:27.043Z,77.19
2023-02-27T11:13:33.560Z,77.04
2023-02-27T11:14:49.687Z,77.19
2023-02-27T11:16:07.300Z,77.25
2023-02-27T11:17:22.344Z,77.10
2023-02-27T11:18:30.278Z,77.18
2023-02-27T11:19:35.031Z,77.18
2023-02-27T11:20:40.732Z,77.20
2023-02-27T11:22:15.054Z,77.14
2023-02-27T11:23:21.897Z,76.63
2023-02-27T11:24:24.767Z,77.11
2023-02-27T11:25:27.590Z,76.45
2023-02-27T11:26:35.539Z,76.26
2023-02-27T11:27:38.596Z,76.56
2023-02-27T11:28:42.506Z,76.59
2023-02-27T11:29:55.878Z,76.61
2023-02-27T11:31:14.931Z,76.72
2023-02-27T11:32:20.194Z,76.63
2023-02-27T11:33:24.544Z,76.51
2023-02-27T11:34:38.968Z,76.03
2023-02-27T11:35:41.955Z,76.24
2023-02-27T11:36:47.504Z,76.58
2023-02-27T11:37:52.614Z,76.52
2023-02-27T11:38:56.957Z,76.79
2023-02-27T11:40:10.824Z,76.56
2023-02-27T11:41:14.379Z,76.68
2023-02-27T11:42:30.819Z,76.91
2023-02-27T11:43:52.546Z,76.57
2023-02-27T11:45:03.423Z,76.08
2023-02-27T11:46:34.361Z,76.53
2023-02-27T11:47:40.581Z,76.69
2023-02-27T11:49:03.229Z,76.84
2023-02-27T11:50:09.340Z,76.63
2023-02-27T11:51:24.616Z,76.99
2023-02-27T11:52:41.117Z,76.86
2023-02-27T11:54:09.643Z,76.58
2023-02-27T11:55:21.053Z,76.71
2023-02-27T11:56:34.139Z,76.67
2023-02-27T11:57:41.474Z,76.29
2023-02-27T11:58:56.375Z,76.37
2023-02-27T12:00:14.263Z,75.95
2023-02-27T12:01:47.082Z,75.90
2023-02-27T12:03:22.056Z,76.17
2023-02-27T12:04:33.741Z,76.35
2023-02-27T12:06:00.432Z,76.51
2023-02-27T12:07:13.054Z,76.08
2023-02-27T12:08:34.778Z,76.29
2023-02-27T12:09:46.926Z,76.12
2023-02-27T12:11:18.539Z,76.35
2023-02-27T12:12:46.366Z,76.38
2023-02-27T12:13:54.542Z,76.41
2023-02-27T12:15:05.819Z,76.02
2023-02-27T12:16:32.421Z,75.91
2023-02-27T12:17:45.015Z,75.90
2023-02-27T12:18:57.052Z,76.09
2023-02-27T12:20:41.970Z,76.22
2023-02-27T12:21:50.087Z,75.92
2023-02-27T12:22:54.579Z,76.17
2023-02-27T12:24:07.852Z,76.19
2023-02-27T12:25:22.214Z,76.32
2023-02-27T12:26:30.227Z,76.04
2023-02-27T12:27:49.241Z,76.48
2023-02-27T12:28:57.961Z,76.15
2023-02-27T12:30:07.753Z,76.31
2023-02-27T12:31:17.228Z,76.50
2023-02-27T12:32:27.992Z,76.09
2023-02-27T12:33:52.919Z,76.36
2023-02-27T12:35:14.176Z,76.42
2023-02-27T12:36:17.099Z,76.29
2023-02-27T12:37:29.966Z,76.48
2023-02-27T12:38:33.153Z,76.15
2023-02-27T12:39:37.052Z,75.95
2023-02-27T12:40:53.309Z,75.41
2023-02-27T12:42:01.844Z,75.71
2023-02-27T12:43:19.271Z,75.50
2023-02-27T12:44:38.036Z,75.59
2023-02-27T12:46:05.868Z,75.51
2023-02-27T12:47:14.397Z,75.58
2023-02-27T12:48:55.084Z,75.56
2023-02-27T12:50:05.483Z,75.38
2023-02-27T12:51:29.262Z,75.61
2023-02-27T12:52:43.138Z,75.72
2023-02-27T12:54:00.532Z,75.49
2023-02-27T12:55:21.044Z,75.50
2023-02-27T12:56:29.253Z,75.17
2023-02-27T12:57:45.990Z,75.42
2023-02-27T12:59:13.740Z,75.46
2023-02-27T13:00:20.329Z,75.06
2023-02-27T13:01:35.450Z,75.14
2023-02-27T13:03:00.957Z,74.94
2023-02-27T13:04:18.526Z,75.56
2023-02-27T13:05:51.039Z,75.56
2023-02-27T13:07:13.544Z,76.02
2023-02-27T13:08:53.856Z,75.53
2023-02-27T13:10:19.295Z,75.54
2023-02-27T13:11:51.550Z,75.70
2023-02-27T13:13:17.460Z,75.88
2023-02-27T13:14:44.592Z,75.71
2023-02-27T13:15:55.614Z,75.62
2023-02-27T13:17:10.691Z,75.87
2023-02-27T13:18:45.753Z,76.06
2023-02-27T13:19:55.047Z,75.77
2023-02-27T13:21:05.705Z,76.19
2023-02-27T13:22:14.270Z,76.09
2023-02-27T13:23:44.126Z,76.23
2023-02-27T13:24:51.194Z,76.30
2023-02-27T13:25:56.674Z,76.44
2023-02-27T13:27:16.196Z,76.38
2023-02-27T13:28:24.885Z,76.59
2023-02-27T13:29:38.868Z,76.36
2023-02-27T13:30:44.983Z,76.23
2023-02-27T13:32:43.108Z,76.29
2023-02-27T13:33:47.774Z,76.35
2023-02-27T13:34:55.448Z,75.91
2023-02-27T13:36:10.329Z,76.65
2023-02-27T13:37:13.394Z,76.25
2023-02-27T13:38:45.683Z,76.23
2023-02-27T13:39:48.971Z,75.80
2023-02-27T13:40:52.562Z,75.84
2023-02-27T13:41:57.103Z,75.90
2023-02-27T13:43:51.096Z,75.59
2023-02-27T13:45:06.379Z,76.08
2023-02-27T13:46:31.249Z,75.93
2023-02-27T13:47:38.787Z,75.88
2023-02-27T13:48:47.062Z,76.11
2023-02-27T13:49:49.874Z,76.20
2023-02-27T13:50:52.962Z,76.38
2023-02-27T13:51:58.793Z,76.23
2023-02-27T13:53:10.734Z,76.44
2023-02-27T13:54:27.957Z,76.03
2023-02-27T13:55:37.821Z,76.36
2023-02-27T13:56:46.211Z,76.19
2023-02-27T13:57:49.184Z,76.36
2023-02-27T13:58:52.181Z,76.29
2023-02-27T13:59:59.362Z,76.26
2023-02-27T14:01:02.333Z,76.24
2023-02-27T14:02:31.128Z,76.47
2023-02-27T14:03:34.849Z,76.27
2023-02-27T14:05:00.669Z,76.55
2023-02-27T14:06:06.956Z,76.21
2023-02-27T14:07:18.708Z,76.29
2023-02-27T14:08:24.760Z,76.36
2023-02-27T14:09:37.519Z,76.37
2023-02-27T14:10:50.250Z,76.33
2023-02-27T14:11:57.943Z,76.28
2023-02-27T14:13:03.665Z,76.53
2023-02-27T14:14:09.833Z,76.16
2023-02-27T14:15:18.776Z,76.10
2023-02-27T14:16:40.203Z,76.21
2023-02-27T14:17:49.537Z,76.10
2023-02-27T14:18:57.228Z,75.94
2023-02-27T14:20:00.284Z,75.64
2023-02-27T14:21:03.426Z,75.94
2023-02-27T14:22:10.802Z,76.12
2023-02-27T14:23:17.113Z,75.84
2023-02-27T14:24:26.107Z,75.92
2023-02-27T14:25:51.178Z,76.04
2023-02-27T14:26:54.894Z,76.13
2023-02-27T14:28:00.277Z,76.17
2023-02-27T14:29:03.521Z,76.08
2023-02-27T14:30:10.103Z,76.01
2023-02-27T14:31:22.623Z,76.20
2023-02-27T14:32:32.619Z,76.02
2023-02-27T14:33:54.077Z,76.37
2023-02-27T14:34:57.273Z,75.92
2023-02-27T14:36:02.986Z,76.02
2023-02-27T14:37:17.222Z,76.04
2023-02-27T14:38:21.500Z,75.99
2023-02-27T14:39:32.402Z,75.86
2023-02-27T14:40:42.069Z,75.57
2023-02-27T14:42:07.564Z,75.85
2023-02-27T14:43:17.938Z,75.73
2023-02-27T14:44:23.924Z,75.53
2023-02-27T14:45:31.036Z,75.89
2023-02-27T14:46:38.616Z,76.14
2023-02-27T14:47:42.180Z,75.62
2023-02-27T14:48:45.637Z,75.77
2023-02-27T14:49:48.944Z,75.90
2023-02-27T14:50:53.878Z,75.62
2023-02-27T14:51:57.533Z,75.77
2023-02-27T14:53:01.717Z,75.84
2023-02-27T14:54:16.776Z,75.85
2023-02-27T14:55:30.132Z,75.31
2023-02-27T14:56:34.588Z,75.65
2023-02-27T14:57:37.733Z,75.58
2023-02-27T14:58:55.589Z,75.76
2023-02-27T15:00:06.129Z,75.55